createdAt,value
2017-10-31T00:01:51.082Z,102492.93
2017-10-31T00:03:51.912Z,102495.63
2017-10-31T00:05:52.825Z,102491.58
2017-10-31T00:07:53.649Z,102489.31
2017-10-31T00:09:54.481Z,102486.61
2017-10-31T00:11:55.373Z,102495.63
2017-10-31T00:13:56.225Z,102492.93
2017-10-31T00:15:57.053Z,102492.50
2017-10-31T00:17:57.913Z,102487.17
2017-10-31T00:19:58.736Z,102494.34
2017-10-31T00:21:59.552Z,102487.17
2017-10-31T00:24:00.437Z,102490.72
2017-10-31T00:26:01.264Z,102485.39
2017-10-31T00:28:02.114Z,102483.05
2017-10-31T00:30:02.993Z,102484.47
2017-10-31T00:32:03.852Z,102476.87
2017-10-31T00:34:04.861Z,102483.62
2017-10-31T00:36:05.721Z,102480.91
2017-10-31T00:38:13.713Z,102492.67
2017-10-31T00:40:14.561Z,102481.02
2017-10-31T00:42:15.414Z,102491.39
2017-10-31T00:44:16.265Z,102490.11
2017-10-31T00:46:17.096Z,102486.48
2017-10-31T00:48:17.932Z,102479.73
2017-10-31T00:50:18.756Z,102478.81
2017-10-31T00:52:19.593Z,102488.26
2017-10-31T00:54:20.441Z,102482.37
2017-10-31T00:56:21.265Z,102484.21
2017-10-31T00:58:22.096Z,102483.78
2017-10-31T01:00:22.956Z,102477.89
2017-10-31T01:02:23.781Z,102476.61
2017-10-31T01:04:24.613Z,102472.98
2017-10-31T01:06:25.480Z,102475.26
2017-10-31T01:08:26.302Z,102469.43
2017-10-31T01:10:27.208Z,102470.72
2017-10-31T01:12:28.060Z,102481.08
2017-10-31T01:14:28.900Z,102479.73
2017-10-31T01:16:29.716Z,102478.88
2017-10-31T01:18:30.553Z,102476.67
2017-10-31T01:20:31.433Z,102471.20
2017-10-31T01:22:32.291Z,102467.66
2017-10-31T01:24:33.150Z,102469.92
2017-10-31T01:26:33.988Z,102472.20
2017-10-31T01:28:34.825Z,102464.10
2017-10-31T01:30:35.709Z,102467.72
2017-10-31T01:32:36.540Z,102462.75
2017-10-31T01:34:37.576Z,102462.33
2017-10-31T01:36:38.431Z,102466.38
2017-10-31T01:38:39.271Z,102469.07
2017-10-31T01:40:40.099Z,102466.38
2017-10-31T01:42:40.999Z,102457.84
2017-10-31T01:44:41.832Z,102456.50
2017-10-31T01:46:42.684Z,102461.83
2017-10-31T01:48:43.544Z,102465.02
2017-10-31T01:50:44.426Z,102459.63
2017-10-31T01:52:45.248Z,102459.63
2017-10-31T01:54:46.096Z,102461.50
2017-10-31T01:56:46.920Z,102455.08
2017-10-31T01:58:47.740Z,102449.75
2017-10-31T02:00:48.620Z,102449.75
2017-10-31T02:02:49.448Z,102454.75
2017-10-31T02:04:50.283Z,102450.70
2017-10-31T02:06:51.162Z,102448.93
2017-10-31T02:08:52.001Z,102449.36
2017-10-31T02:10:52.858Z,102441.66
2017-10-31T02:12:53.720Z,102435.34
2017-10-31T02:14:54.550Z,102436.36
2017-10-31T02:16:55.408Z,102437.28
2017-10-31T02:18:56.288Z,102439.06
2017-10-31T02:20:57.139Z,102434.58
2017-10-31T02:22:57.979Z,102437.77
2017-10-31T02:24:58.872Z,102436.42
2017-10-31T02:26:59.733Z,102439.55
2017-10-31T02:29:00.584Z,102432.80
2017-10-31T02:31:01.482Z,102431.45
2017-10-31T02:33:02.377Z,102428.33
2017-10-31T02:35:03.396Z,102434.22
2017-10-31T02:37:04.267Z,102428.39
2017-10-31T02:39:20.496Z,102432.87
2017-10-31T02:41:21.336Z,102430.23
2017-10-31T02:43:22.214Z,102425.34
2017-10-31T02:45:23.122Z,102434.78
2017-10-31T02:47:23.993Z,102432.08
2017-10-31T02:49:24.848Z,102433.86
2017-10-31T02:51:25.728Z,102427.11
2017-10-31T02:53:26.579Z,102426.62
2017-10-31T02:55:27.453Z,102420.80
2017-10-31T02:57:28.360Z,102419.02
2017-10-31T02:59:29.219Z,102418.09
2017-10-31T03:01:30.097Z,102415.89
2017-10-31T03:03:30.920Z,102423.59
2017-10-31T03:05:31.785Z,102424.84
2017-10-31T03:07:32.656Z,102425.77
2017-10-31T03:09:33.488Z,102425.77
2017-10-31T03:11:34.340Z,102420.47
2017-10-31T03:13:35.248Z,102418.20
2017-10-31T03:15:36.106Z,102422.64
2017-10-31T03:17:36.955Z,102428.03
2017-10-31T03:19:37.824Z,102427.97
2017-10-31T03:21:38.672Z,102424.41
2017-10-31T03:23:39.520Z,102427.21
2017-10-31T03:25:40.381Z,102423.59
2017-10-31T03:27:41.222Z,102424.52
2017-10-31T03:29:42.058Z,102416.06
2017-10-31T03:31:42.923Z,102414.64
2017-10-31T03:33:43.760Z,102415.13
2017-10-31T03:35:44.918Z,102414.64
2017-10-31T03:37:45.780Z,102408.88
2017-10-31T03:39:46.617Z,102409.31
2017-10-31T03:41:47.464Z,102406.61
2017-10-31T03:43:48.338Z,102406.19
2017-10-31T03:45:49.209Z,102411.58
2017-10-31T03:47:50.103Z,102407.96
2017-10-31T03:49:51.021Z,102412.02
2017-10-31T03:51:51.877Z,102413.78
2017-10-31T03:53:52.756Z,102410.30
2017-10-31T03:55:53.625Z,102415.13
2017-10-31T03:57:54.468Z,102420.96
2017-10-31T03:59:55.327Z,102416.91
2017-10-31T04:01:56.288Z,102423.73
2017-10-31T04:03:57.133Z,102418.75
2017-10-31T04:05:58.017Z,102418.75
2017-10-31T04:07:58.895Z,102418.75
2017-10-31T04:09:59.720Z,102417.41
2017-10-31T04:12:00.549Z,102414.70
2017-10-31T04:14:01.404Z,102410.73
2017-10-31T04:16:02.275Z,102416.55
2017-10-31T04:18:03.124Z,102413.42
2017-10-31T04:20:03.967Z,102417.41
2017-10-31T04:22:04.814Z,102414.28
2017-10-31T04:24:05.656Z,102419.68
2017-10-31T04:26:06.516Z,102420.60
2017-10-31T04:28:07.353Z,102421.45
2017-10-31T04:30:08.176Z,102424.16
2017-10-31T04:32:09.033Z,102426.49
2017-10-31T04:34:09.873Z,102423.80
2017-10-31T04:36:11.130Z,102419.32
2017-10-31T04:38:11.990Z,102419.75
2017-10-31T04:40:12.819Z,102417.55
2017-10-31T04:42:13.676Z,102417.55
2017-10-31T04:44:14.528Z,102419.41
2017-10-31T04:46:15.352Z,102417.11
2017-10-31T04:48:16.254Z,102412.67
2017-10-31T04:50:17.120Z,102416.19
2017-10-31T04:52:17.948Z,102406.75
2017-10-31T04:54:18.803Z,102408.63
2017-10-31T04:56:19.705Z,102409.45
2017-10-31T04:58:20.626Z,102403.63
2017-10-31T05:00:21.736Z,102403.23
2017-10-31T05:02:22.593Z,102401.02
2017-10-31T05:04:23.436Z,102399.67
2017-10-31T05:06:24.332Z,102395.20
2017-10-31T05:08:25.205Z,102389.80
2017-10-31T05:10:26.033Z,102394.77
2017-10-31T05:12:26.857Z,102388.95
2017-10-31T05:14:27.708Z,102388.88
2017-10-31T05:16:28.584Z,102383.05
2017-10-31T05:18:29.417Z,102383.48
2017-10-31T05:20:30.691Z,102383.55
2017-10-31T05:22:31.525Z,102374.53
2017-10-31T05:24:32.355Z,102369.56
2017-10-31T05:26:33.200Z,102382.63
2017-10-31T05:28:34.227Z,102368.28
2017-10-31T05:30:35.049Z,102382.20
2017-10-31T05:32:35.889Z,102383.55
2017-10-31T05:34:36.713Z,102380.42
2017-10-31T05:36:37.764Z,102376.45
2017-10-31T05:38:38.615Z,102374.67
2017-10-31T05:40:39.424Z,102376.88
2017-10-31T05:42:40.249Z,102377.79
2017-10-31T05:44:41.096Z,102378.22
2017-10-31T05:46:41.924Z,102375.59
2017-10-31T05:48:42.744Z,102377.36
2017-10-31T05:50:43.599Z,102377.89
2017-10-31T05:52:44.484Z,102376.94
2017-10-31T05:54:45.325Z,102376.55
2017-10-31T05:56:46.172Z,102374.67
2017-10-31T05:58:47.080Z,102373.84
2017-10-31T06:00:47.903Z,102375.20
2017-10-31T06:02:48.768Z,102372.98
2017-10-31T06:04:49.595Z,102373.42
2017-10-31T06:06:50.421Z,102375.20
2017-10-31T06:08:51.268Z,102379.24
2017-10-31T06:10:52.127Z,102377.89
2017-10-31T06:12:52.977Z,102376.12
2017-10-31T06:14:53.834Z,102378.39
2017-10-31T06:16:54.674Z,102384.70
2017-10-31T06:18:55.517Z,102387.83
2017-10-31T06:20:56.368Z,102386.55
2017-10-31T06:25:43.606Z,102385.63
2017-10-31T06:27:51.704Z,102391.95
2017-10-31T06:29:59.741Z,102392.02
2017-10-31T06:32:07.913Z,102391.59
2017-10-31T06:34:10.368Z,102386.26
2017-10-31T06:36:12.861Z,102396.98
2017-10-31T06:38:15.544Z,102395.14
2017-10-31T06:40:18.004Z,102401.09
2017-10-31T06:42:20.453Z,102396.06
2017-10-31T06:44:22.907Z,102401.09
2017-10-31T06:46:25.417Z,102400.11
2017-10-31T06:48:27.888Z,102404.16
2017-10-31T06:50:30.337Z,102403.23
2017-10-31T06:52:32.801Z,102406.36
2017-10-31T06:54:35.244Z,102408.56
2017-10-31T06:56:37.694Z,102407.70
2017-10-31T06:58:40.286Z,102406.72
2017-10-31T07:00:42.822Z,102404.94
2017-10-31T07:02:45.268Z,102412.12
2017-10-31T07:04:47.739Z,102411.20
2017-10-31T07:06:50.223Z,102416.17
2017-10-31T07:08:52.656Z,102411.69
2017-10-31T07:10:55.129Z,102402.67
2017-10-31T07:12:57.571Z,102408.83
2017-10-31T07:15:00.007Z,102407.97
2017-10-31T07:17:02.496Z,102407.47
2017-10-31T07:19:04.944Z,102410.60
2017-10-31T07:21:07.413Z,102409.25
2017-10-31T07:23:09.997Z,102408.83
2017-10-31T07:25:12.469Z,102415.50
2017-10-31T07:27:14.911Z,102415.50
2017-10-31T07:29:17.364Z,102423.11
2017-10-31T07:31:19.813Z,102415.01
2017-10-31T07:33:22.304Z,102414.58
2017-10-31T07:35:24.783Z,102418.56
2017-10-31T07:37:27.248Z,102420.34
2017-10-31T07:39:29.804Z,102416.79
2017-10-31T07:41:32.347Z,102418.56
2017-10-31T07:43:34.814Z,102421.27
2017-10-31T07:45:37.360Z,102419.81
2017-10-31T07:47:39.860Z,102417.64
2017-10-31T07:49:42.314Z,102417.64
2017-10-31T07:51:44.755Z,102422.52
2017-10-31T07:53:47.229Z,102421.59
2017-10-31T07:55:49.679Z,102422.45
2017-10-31T07:57:52.172Z,102421.59
2017-10-31T07:59:54.637Z,102418.39
2017-10-31T08:01:57.120Z,102417.97
2017-10-31T08:03:59.575Z,102417.90
2017-10-31T08:06:02.030Z,102414.70
2017-10-31T08:08:04.468Z,102413.85
2017-10-31T08:10:06.909Z,102417.77
2017-10-31T08:12:09.369Z,102413.30
2017-10-31T08:14:11.841Z,102411.84
2017-10-31T08:16:14.333Z,102412.37
2017-10-31T08:18:16.944Z,102409.57
2017-10-31T08:20:19.377Z,102412.70
2017-10-31T08:22:21.869Z,102415.39
2017-10-31T08:24:24.392Z,102414.91
2017-10-31T08:26:26.834Z,102413.98
2017-10-31T08:28:29.285Z,102415.75
2017-10-31T08:30:31.742Z,102416.11
2017-10-31T08:32:34.281Z,102417.96
2017-10-31T08:34:36.750Z,102421.02
2017-10-31T08:36:39.320Z,102422.77
2017-10-31T08:38:41.758Z,102416.11
2017-10-31T08:40:44.354Z,102416.87
2017-10-31T08:42:46.820Z,102413.74
2017-10-31T08:44:49.308Z,102410.62
2017-10-31T08:46:51.775Z,102414.17
2017-10-31T08:48:54.359Z,102413.31
2017-10-31T08:50:56.835Z,102411.47
2017-10-31T08:52:59.282Z,102409.20
2017-10-31T08:55:01.753Z,102405.58
2017-10-31T08:57:04.193Z,102404.66
2017-10-31T08:59:06.624Z,102404.66
2017-10-31T09:01:10.084Z,102405.02
2017-10-31T09:03:12.561Z,102408.64
2017-10-31T09:05:14.992Z,102405.44
2017-10-31T09:07:17.457Z,102406.80
2017-10-31T09:09:19.973Z,102406.30
2017-10-31T09:11:22.438Z,102410.73
2017-10-31T09:13:24.908Z,102403.92
2017-10-31T09:15:27.342Z,102402.58
2017-10-31T09:17:29.782Z,102401.16
2017-10-31T09:19:32.249Z,102394.41
2017-10-31T09:21:34.685Z,102392.92
2017-10-31T09:23:37.123Z,102411.39
2017-10-31T09:25:39.585Z,102404.64
2017-10-31T09:27:42.025Z,102403.30
2017-10-31T09:29:44.456Z,102390.23
2017-10-31T09:31:46.931Z,102396.45
2017-10-31T09:33:49.363Z,102392.83
2017-10-31T09:35:51.856Z,102388.78
2017-10-31T09:37:54.360Z,102387.78
2017-10-31T09:39:56.795Z,102395.81
2017-10-31T09:41:59.405Z,102384.52
2017-10-31T09:44:01.967Z,102389.92
2017-10-31T09:46:04.417Z,102388.90
2017-10-31T09:48:06.917Z,102400.05
2017-10-31T09:50:09.483Z,102394.73
2017-10-31T09:52:11.916Z,102396.01
2017-10-31T09:54:14.350Z,102391.03
2017-10-31T09:56:16.805Z,102386.49
2017-10-31T09:58:19.250Z,102389.62
2017-10-31T10:00:21.685Z,102392.22
2017-10-31T10:02:24.149Z,102389.52
2017-10-31T10:04:26.596Z,102392.58
2017-10-31T10:06:29.132Z,102389.87
2017-10-31T10:08:31.611Z,102387.53
2017-10-31T10:10:34.044Z,102384.41
2017-10-31T10:12:36.472Z,102385.69
2017-10-31T10:14:39.010Z,102379.37
2017-10-31T10:16:41.479Z,102380.29
2017-10-31T10:18:43.933Z,102376.14
2017-10-31T10:20:46.429Z,102370.67
2017-10-31T10:22:48.871Z,102376.08
2017-10-31T10:24:51.392Z,102368.33
2017-10-31T10:26:53.854Z,102365.70
2017-10-31T10:28:56.317Z,102372.81
2017-10-31T10:30:58.799Z,102369.68
2017-10-31T10:33:01.256Z,102367.34
2017-10-31T10:35:03.688Z,102365.89
2017-10-31T10:37:06.129Z,102359.99
2017-10-31T10:39:08.589Z,102361.77
2017-10-31T10:41:11.029Z,102359.00
2017-10-31T10:43:13.820Z,102353.17
2017-10-31T10:45:16.291Z,102350.83
2017-10-31T10:47:18.735Z,102348.14
2017-10-31T10:49:21.170Z,102345.86
2017-10-31T10:51:23.628Z,102344.52
2017-10-31T10:53:26.175Z,102336.31
2017-10-31T10:55:28.618Z,102334.96
2017-10-31T10:57:31.082Z,102325.44
2017-10-31T10:59:33.560Z,102332.55
2017-10-31T11:01:36.024Z,102325.37
2017-10-31T11:03:38.493Z,102328.07
2017-10-31T11:05:40.973Z,102330.20
2017-10-31T11:07:43.411Z,102323.03
2017-10-31T11:09:45.884Z,102322.61
2017-10-31T11:11:48.321Z,102324.80
2017-10-31T11:13:50.764Z,102332.91
2017-10-31T11:15:53.228Z,102332.91
2017-10-31T11:17:55.665Z,102327.86
2017-10-31T11:19:58.096Z,102330.06
2017-10-31T11:22:00.630Z,102325.16
2017-10-31T11:24:03.076Z,102319.77
2017-10-31T11:26:05.514Z,102322.39
2017-10-31T11:28:07.986Z,102320.98
2017-10-31T11:30:10.494Z,102319.20
2017-10-31T11:32:12.985Z,102313.73
2017-10-31T11:34:15.457Z,102314.16
2017-10-31T11:36:17.890Z,102312.38
2017-10-31T11:38:20.348Z,102308.22
2017-10-31T11:40:23.710Z,102308.22
2017-10-31T11:42:26.163Z,102307.30
2017-10-31T11:44:28.743Z,102305.03
2017-10-31T11:46:31.221Z,102304.60
2017-10-31T11:48:33.662Z,102301.41
2017-10-31T11:50:36.094Z,102303.25
2017-10-31T11:52:38.736Z,102296.00
2017-10-31T11:54:41.186Z,102293.73
2017-10-31T11:56:43.658Z,102294.66
2017-10-31T11:58:46.226Z,102292.88
2017-10-31T12:00:48.668Z,102290.53
2017-10-31T12:02:51.096Z,102296.00
2017-10-31T12:04:53.562Z,102291.45
2017-10-31T12:06:56.001Z,102291.03
2017-10-31T12:08:58.470Z,102285.63
2017-10-31T12:11:01.036Z,102287.91
2017-10-31T12:13:03.479Z,102277.53
2017-10-31T12:15:05.981Z,102282.50
2017-10-31T12:17:08.544Z,102282.01
2017-10-31T12:19:10.990Z,102281.08
2017-10-31T12:21:13.429Z,102280.66
2017-10-31T12:23:15.885Z,102280.66
2017-10-31T12:25:18.341Z,102283.78
2017-10-31T12:27:20.824Z,102279.80
2017-10-31T12:29:23.286Z,102268.50
2017-10-31T12:31:25.885Z,102276.11
2017-10-31T12:33:28.335Z,102273.91
2017-10-31T12:35:30.884Z,102277.46
2017-10-31T12:37:33.322Z,102270.28
2017-10-31T12:39:35.761Z,102265.31
2017-10-31T12:41:38.274Z,102275.19
2017-10-31T12:43:40.706Z,102273.84
2017-10-31T12:45:43.193Z,102270.22
2017-10-31T12:47:45.665Z,102272.12
2017-10-31T12:49:48.102Z,102266.23
2017-10-31T12:51:50.544Z,102264.39
2017-10-31T12:53:53.018Z,102265.73
2017-10-31T12:55:55.491Z,102266.23
2017-10-31T12:57:58.911Z,102260.83
2017-10-31T13:00:01.365Z,102264.88
2017-10-31T13:02:03.878Z,102263.11
2017-10-31T13:04:06.396Z,102261.76
2017-10-31T13:06:08.968Z,102261.76
2017-10-31T13:08:11.441Z,102259.55
2017-10-31T13:10:13.888Z,102259.05
2017-10-31T13:12:16.349Z,102257.28
2017-10-31T13:14:18.784Z,102259.05
2017-10-31T13:16:21.318Z,102255.93
2017-10-31T13:18:23.777Z,102253.23
2017-10-31T13:20:26.212Z,102253.73
2017-10-31T13:22:28.650Z,102254.16
2017-10-31T13:24:31.202Z,102255.93
2017-10-31T13:26:35.140Z,102256.42
2017-10-31T13:28:38.214Z,102254.22
2017-10-31T13:30:41.387Z,102255.08
2017-10-31T13:32:44.489Z,102251.95
2017-10-31T13:34:47.474Z,102248.39
2017-10-31T13:36:50.615Z,102242.60
2017-10-31T13:38:53.744Z,102236.78
2017-10-31T13:40:56.933Z,102239.48
2017-10-31T13:42:59.925Z,102239.91
2017-10-31T13:45:02.460Z,102246.72
2017-10-31T13:47:05.706Z,102236.84
2017-10-31T13:49:08.885Z,102237.34
2017-10-31T13:51:11.730Z,102240.90
2017-10-31T13:53:14.190Z,102232.38
2017-10-31T13:55:16.757Z,102232.87
2017-10-31T13:57:19.190Z,102229.74
2017-10-31T13:59:21.689Z,102229.31
2017-10-31T14:01:24.168Z,102227.54
2017-10-31T14:03:27.164Z,102225.27
2017-10-31T14:05:29.597Z,102228.39
2017-10-31T14:07:32.826Z,102222.20
2017-10-31T14:09:36.081Z,102226.19
2017-10-31T14:11:39.520Z,102220.44
2017-10-31T14:13:41.972Z,102224.48
2017-10-31T14:15:44.427Z,102218.30
2017-10-31T14:17:46.872Z,102220.50
2017-10-31T14:19:49.437Z,102218.30
2017-10-31T14:21:52.673Z,102216.52
2017-10-31T14:23:55.106Z,102206.65
2017-10-31T14:25:57.579Z,102209.34
2017-10-31T14:28:00.048Z,102204.02
2017-10-31T14:30:02.491Z,102203.09
2017-10-31T14:32:05.003Z,102196.02
2017-10-31T14:34:07.437Z,102199.15
2017-10-31T14:36:09.878Z,102198.72
2017-10-31T14:38:12.406Z,102197.88
2017-10-31T14:40:14.851Z,102197.94
2017-10-31T14:42:17.323Z,102191.20
2017-10-31T14:44:19.780Z,102193.04
2017-10-31T14:46:22.292Z,102184.94
2017-10-31T14:48:24.821Z,102187.64
2017-10-31T14:50:27.324Z,102188.14
2017-10-31T14:52:29.762Z,102182.84
2017-10-31T14:54:32.209Z,102185.55
2017-10-31T14:56:34.685Z,102183.77
2017-10-31T14:58:37.272Z,102183.41
2017-10-31T15:00:39.728Z,102189.31
2017-10-31T15:02:42.256Z,102185.69
2017-10-31T15:04:44.693Z,102187.95
2017-10-31T15:06:47.193Z,102173.61
2017-10-31T15:08:49.660Z,102178.08
2017-10-31T15:10:52.094Z,102178.58
2017-10-31T15:12:54.618Z,102180.85
2017-10-31T15:14:57.094Z,102178.58
2017-10-31T15:16:59.537Z,102176.80
2017-10-31T15:19:01.973Z,102171.08
2017-10-31T15:21:04.430Z,102170.23
2017-10-31T15:23:06.957Z,102160.78
2017-10-31T15:25:09.397Z,102162.56
2017-10-31T15:27:11.855Z,102161.20
2017-10-31T15:29:14.386Z,102157.23
2017-10-31T15:31:16.837Z,102160.85
2017-10-31T15:33:19.408Z,102151.91
2017-10-31T15:35:21.858Z,102151.91
2017-10-31T15:37:24.307Z,102148.77
2017-10-31T15:39:26.781Z,102154.28
2017-10-31T15:41:29.212Z,102160.07
2017-10-31T15:43:31.645Z,102155.20
2017-10-31T15:45:34.126Z,102151.97
2017-10-31T15:47:36.563Z,102152.92
2017-10-31T15:49:39.124Z,102150.30
2017-10-31T15:51:41.642Z,102157.05
2017-10-31T15:53:44.126Z,102150.38
2017-10-31T15:55:46.557Z,102151.72
2017-10-31T15:57:49.165Z,102146.82
2017-10-31T15:59:51.613Z,102146.39
2017-10-31T16:01:54.052Z,102149.52
2017-10-31T16:03:56.534Z,102153.14
2017-10-31T16:05:58.977Z,102147.42
2017-10-31T16:08:01.499Z,102146.99
2017-10-31T16:10:04.095Z,102149.27
2017-10-31T16:12:06.559Z,102147.06
2017-10-31T16:14:09.056Z,102147.92
2017-10-31T16:16:11.521Z,102151.54
2017-10-31T16:18:13.982Z,102152.89
2017-10-31T16:20:16.420Z,102148.91
2017-10-31T16:22:18.885Z,102147.56
2017-10-31T16:24:21.321Z,102143.09
2017-10-31T16:26:23.787Z,102139.47
2017-10-31T16:28:26.252Z,102144.94
2017-10-31T16:30:28.758Z,102144.08
2017-10-31T16:32:31.192Z,102145.44
2017-10-31T16:34:33.657Z,102147.20
2017-10-31T16:36:36.094Z,102146.36
2017-10-31T16:38:38.566Z,102148.66
2017-10-31T16:40:41.033Z,102147.81
2017-10-31T16:42:43.468Z,102146.45
2017-10-31T16:44:45.964Z,102144.19
2017-10-31T16:46:48.421Z,102143.76
2017-10-31T16:48:50.910Z,102146.95
2017-10-31T16:50:53.445Z,102150.51
2017-10-31T16:52:56.011Z,102160.02
2017-10-31T16:54:58.563Z,102158.67
2017-10-31T16:57:00.996Z,102154.63
2017-10-31T16:59:03.456Z,102147.45
2017-10-31T17:01:05.888Z,102150.16
2017-10-31T17:03:08.394Z,102147.02
2017-10-31T17:05:10.855Z,102145.18
2017-10-31T17:07:13.298Z,102141.20
2017-10-31T17:09:15.745Z,102145.25
2017-10-31T17:11:18.226Z,102149.30
2017-10-31T17:13:20.673Z,102144.83
2017-10-31T17:15:23.184Z,102144.89
2017-10-31T17:17:25.712Z,102144.40
2017-10-31T17:19:28.163Z,102148.45
2017-10-31T17:21:30.596Z,102148.02
2017-10-31T17:23:33.059Z,102148.87
2017-10-31T17:25:35.510Z,102144.50
2017-10-31T17:27:37.951Z,102142.20
2017-10-31T17:29:40.497Z,102150.30
2017-10-31T17:31:42.950Z,102152.99
2017-10-31T17:33:45.384Z,102149.90
2017-10-31T17:35:47.868Z,102152.99
2017-10-31T17:37:50.398Z,102148.02
2017-10-31T17:39:52.893Z,102153.09
2017-10-31T17:41:55.354Z,102150.30
2017-10-31T17:43:57.783Z,102148.02
2017-10-31T17:46:00.272Z,102152.59
2017-10-31T17:48:02.733Z,102148.13
2017-10-31T17:50:05.208Z,102157.14
2017-10-31T17:52:07.761Z,102149.97
2017-10-31T17:54:10.220Z,102146.77
2017-10-31T17:56:12.652Z,102145.42
2017-10-31T17:58:15.093Z,102144.58
2017-10-31T18:00:17.552Z,102139.60
2017-10-31T18:02:19.999Z,102139.60
2017-10-31T18:04:22.514Z,102140.09
2017-10-31T18:06:24.992Z,102145.42
2017-10-31T18:08:27.453Z,102140.09
2017-10-31T18:10:29.896Z,102140.95
2017-10-31T18:12:32.372Z,102136.05
2017-10-31T18:14:34.814Z,102135.20
2017-10-31T18:16:37.329Z,102130.66
2017-10-31T18:18:39.838Z,102132.92
2017-10-31T18:20:42.284Z,102130.23
2017-10-31T18:22:44.733Z,102132.50
2017-10-31T18:24:47.184Z,102130.66
2017-10-31T18:26:49.677Z,102130.16
2017-10-31T18:28:52.219Z,102125.75
2017-10-31T18:30:54.692Z,102126.61
2017-10-31T18:32:57.130Z,102120.78
2017-10-31T18:34:59.637Z,102114.53
2017-10-31T18:37:02.550Z,102117.23
2017-10-31T18:39:05.021Z,102117.66
2017-10-31T18:41:07.475Z,102107.78
2017-10-31T18:43:09.941Z,102108.64
2017-10-31T18:45:12.418Z,102105.09
2017-10-31T18:47:14.888Z,102101.11
2017-10-31T18:49:17.365Z,102100.61
2017-10-31T18:51:19.807Z,102105.58
2017-10-31T18:53:22.321Z,102100.19
2017-10-31T18:55:24.860Z,102097.48
2017-10-31T18:57:27.325Z,102092.09
2017-10-31T18:59:29.821Z,102091.66
2017-10-31T19:01:32.382Z,102089.39
2017-10-31T19:03:34.845Z,102094.36
2017-10-31T19:05:37.336Z,102091.23
2017-10-31T19:07:39.893Z,102090.42
2017-10-31T19:09:42.353Z,102093.02
2017-10-31T19:11:44.800Z,102093.87
2017-10-31T19:13:47.311Z,102088.54
2017-10-31T19:15:49.789Z,102085.77
2017-10-31T19:17:52.234Z,102088.11
2017-10-31T19:19:54.698Z,102094.36
2017-10-31T19:21:57.154Z,102085.41
2017-10-31T19:23:59.589Z,102094.79
2017-10-31T19:26:02.065Z,102080.44
2017-10-31T19:28:04.602Z,102087.62
2017-10-31T19:30:07.041Z,102081.36
2017-10-31T19:32:09.501Z,102085.41
2017-10-31T19:34:11.949Z,102082.33
2017-10-31T19:36:14.389Z,102087.19
2017-10-31T19:38:16.849Z,102079.52
2017-10-31T19:40:19.284Z,102080.44
2017-10-31T19:42:22.041Z,102081.72
2017-10-31T19:44:24.940Z,102083.56
2017-10-31T19:46:27.668Z,102088.97
2017-10-31T19:48:30.245Z,102094.36
2017-10-31T19:50:32.750Z,102092.59
2017-10-31T19:52:36.239Z,102089.47
2017-10-31T19:54:39.771Z,102091.23
2017-10-31T19:56:42.253Z,102094.79
2017-10-31T19:58:44.736Z,102088.11
2017-10-31T20:00:47.197Z,102088.11
2017-10-31T20:02:49.776Z,102091.23
2017-10-31T20:04:52.766Z,102084.48
2017-10-31T20:06:55.330Z,102077.74
2017-10-31T20:08:57.810Z,102075.05
2017-10-31T20:11:00.634Z,102080.44
2017-10-31T20:13:04.156Z,102072.34
2017-10-31T20:15:07.008Z,102073.27
2017-10-31T20:17:10.753Z,102074.63
2017-10-31T20:19:14.380Z,102085.41
2017-10-31T20:21:17.286Z,102083.56
2017-10-31T20:23:20.855Z,102081.80
2017-10-31T20:25:23.764Z,102074.63
2017-10-31T20:27:26.760Z,102071.00
2017-10-31T20:29:29.252Z,102071.53
2017-10-31T20:31:31.728Z,102069.65
2017-10-31T20:33:34.192Z,102083.14
2017-10-31T20:35:36.673Z,102082.33
2017-10-31T20:37:39.146Z,102075.97
2017-10-31T20:39:41.620Z,102085.84
2017-10-31T20:41:44.054Z,102083.67
2017-10-31T20:43:46.490Z,102078.17
2017-10-31T20:45:49.021Z,102076.82
2017-10-31T20:47:51.462Z,102079.09
2017-10-31T20:49:53.952Z,102074.63
2017-10-31T20:51:56.428Z,102077.42
2017-10-31T20:53:58.954Z,102077.84
2017-10-31T20:56:01.614Z,102085.41
2017-10-31T20:58:04.082Z,102075.15
2017-10-31T21:00:06.534Z,102075.58
2017-10-31T21:02:09.101Z,102066.63
2017-10-31T21:04:11.654Z,102066.20
2017-10-31T21:06:14.205Z,102058.85
2017-10-31T21:08:16.644Z,102063.44
2017-10-31T21:10:19.103Z,102063.44
2017-10-31T21:12:21.639Z,102061.23
2017-10-31T21:14:24.072Z,102057.61
2017-10-31T21:16:26.580Z,102053.63
2017-10-31T21:18:29.025Z,102054.06
2017-10-31T21:20:31.460Z,102052.78
2017-10-31T21:22:33.935Z,102061.66
2017-10-31T21:24:36.371Z,102063.93
2017-10-31T21:26:38.816Z,102056.75
2017-10-31T21:28:41.277Z,102055.91
2017-10-31T21:30:43.779Z,102059.03
2017-10-31T21:32:46.216Z,102055.91
2017-10-31T21:34:48.683Z,102054.13
2017-10-31T21:36:51.131Z,102053.20
2017-10-31T21:38:53.649Z,102055.48
2017-10-31T21:40:56.105Z,102048.30
2017-10-31T21:42:58.545Z,102053.63
2017-10-31T21:45:00.978Z,102048.73
2017-10-31T21:47:03.439Z,102044.26
2017-10-31T21:49:05.873Z,102046.03
2017-10-31T21:51:08.316Z,102045.68
2017-10-31T21:53:10.778Z,102046.11
2017-10-31T21:55:13.309Z,102046.53
2017-10-31T21:57:15.893Z,102047.38
2017-10-31T21:59:18.353Z,102037.09
2017-10-31T22:01:20.797Z,102028.56
2017-10-31T22:03:24.183Z,102027.72
2017-10-31T22:05:26.650Z,102021.82
2017-10-31T22:07:29.098Z,102027.22
2017-10-31T22:09:31.549Z,102026.30
2017-10-31T22:11:34.011Z,102025.44
2017-10-31T22:13:36.469Z,102029.48
2017-10-31T22:15:38.913Z,102018.70
2017-10-31T22:17:41.370Z,102023.17
2017-10-31T22:19:43.816Z,102025.02
2017-10-31T22:21:46.336Z,102020.89
2017-10-31T22:23:48.821Z,102024.59
2017-10-31T22:25:51.268Z,102026.79
2017-10-31T22:27:53.717Z,102023.17
2017-10-31T22:29:56.183Z,102019.62
2017-10-31T22:31:58.656Z,102014.65
2017-10-31T22:34:01.107Z,102021.89
2017-10-31T22:36:03.617Z,102018.38
2017-10-31T22:38:06.101Z,102017.84
2017-10-31T22:40:08.564Z,102020.54
2017-10-31T22:42:11.032Z,102013.91
2017-10-31T22:44:13.474Z,102010.28
2017-10-31T22:46:15.981Z,102004.88
2017-10-31T22:48:18.557Z,102004.88
2017-10-31T22:50:20.996Z,102013.91
2017-10-31T22:52:23.433Z,102008.01
2017-10-31T22:54:25.904Z,102005.80
2017-10-31T22:56:28.346Z,101999.98
2017-10-31T22:58:30.908Z,101993.73
2017-10-31T23:00:33.374Z,101991.53
2017-10-31T23:02:35.852Z,101988.84
2017-10-31T23:04:38.292Z,101997.43
2017-10-31T23:06:40.750Z,101996.94
2017-10-31T23:08:43.184Z,101994.30
2017-10-31T23:10:45.633Z,101996.08
2017-10-31T23:12:48.196Z,101996.50
2017-10-31T23:14:50.671Z,101992.88
2017-10-31T23:16:53.100Z,101996.08